createdAt,value
2023-05-13T00:00:50.198Z,11.00
2023-05-13T00:02:12.841Z,11.00
2023-05-13T00:03:35.162Z,11.10
2023-05-13T00:04:57.394Z,11.10
2023-05-13T00:06:19.515Z,11.10
2023-05-13T00:07:42.433Z,11.10
2023-05-13T00:09:04.687Z,11.00
2023-05-13T00:10:26.866Z,11.00
2023-05-13T00:11:48.893Z,11.00
2023-05-13T00:13:11.068Z,11.00
2023-05-13T00:14:33.157Z,11.00
2023-05-13T00:15:55.260Z,11.00
2023-05-13T00:17:18.048Z,11.00
2023-05-13T00:18:40.380Z,11.00
2023-05-13T00:20:02.615Z,11.00
2023-05-13T00:21:24.736Z,11.00
2023-05-13T00:22:46.870Z,11.00
2023-05-13T00:24:08.998Z,11.00
2023-05-13T00:25:31.204Z,11.00
2023-05-13T00:26:53.645Z,11.00
2023-05-13T00:28:15.853Z,11.00
2023-05-13T00:29:37.965Z,11.00
2023-05-13T00:31:00.146Z,10.90
2023-05-13T00:32:22.183Z,10.90
2023-05-13T00:33:44.864Z,10.90
2023-05-13T00:35:07.334Z,10.90
2023-05-13T00:36:29.791Z,10.80
2023-05-13T00:37:52.084Z,10.80
2023-05-13T00:39:14.195Z,10.80
2023-05-13T00:40:39.609Z,10.80
2023-05-13T00:42:04.394Z,10.80
2023-05-13T00:43:26.474Z,10.80
2023-05-13T00:44:48.618Z,10.80
2023-05-13T00:46:10.846Z,10.80
2023-05-13T00:47:33.339Z,10.80
2023-05-13T00:48:55.586Z,10.80
2023-05-13T00:50:17.877Z,10.80
2023-05-13T00:51:40.002Z,10.80
2023-05-13T00:53:03.799Z,10.80
2023-05-13T00:54:26.153Z,10.80
2023-05-13T00:55:48.265Z,10.80
2023-05-13T00:57:10.456Z,10.80
2023-05-13T00:58:32.531Z,10.70
2023-05-13T00:59:54.920Z,10.70
2023-05-13T01:01:19.943Z,10.70
2023-05-13T01:02:48.027Z,10.70
2023-05-13T01:04:46.981Z,10.70
2023-05-13T01:06:18.218Z,10.70
2023-05-13T01:08:11.223Z,10.70
2023-05-13T01:09:39.323Z,10.80
2023-05-13T01:11:06.957Z,10.80
2023-05-13T01:12:58.464Z,10.70
2023-05-13T01:14:25.934Z,10.70
2023-05-13T01:16:07.577Z,10.70
2023-05-13T01:17:36.931Z,10.60
2023-05-13T01:19:03.644Z,10.60
2023-05-13T01:20:27.428Z,10.60
2023-05-13T01:21:55.658Z,10.60
2023-05-13T01:23:17.711Z,10.60
2023-05-13T01:24:39.875Z,10.60
2023-05-13T01:26:01.943Z,10.50
2023-05-13T01:27:24.016Z,10.50
2023-05-13T01:28:46.231Z,10.50
2023-05-13T01:30:10.102Z,10.50
2023-05-13T01:31:32.740Z,10.50
2023-05-13T01:32:54.973Z,10.50
2023-05-13T01:34:19.554Z,10.50
2023-05-13T01:35:41.767Z,10.40
2023-05-13T01:37:04.526Z,10.40
2023-05-13T01:38:27.901Z,10.40
2023-05-13T01:39:51.520Z,10.40
2023-05-13T01:41:13.662Z,10.40
2023-05-13T01:42:35.826Z,10.40
2023-05-13T01:43:57.937Z,10.40
2023-05-13T01:45:20.111Z,10.30
2023-05-13T01:46:45.591Z,10.30
2023-05-13T01:48:07.754Z,10.30
2023-05-13T01:49:29.875Z,10.30
2023-05-13T01:50:52.614Z,10.30
2023-05-13T01:52:14.710Z,10.30
2023-05-13T01:53:37.053Z,10.30
2023-05-13T01:54:59.894Z,10.30
2023-05-13T01:56:22.379Z,10.30
2023-05-13T01:57:44.464Z,10.30
2023-05-13T01:59:07.771Z,10.30
2023-05-13T02:00:29.853Z,10.20
2023-05-13T02:01:51.902Z,10.20
2023-05-13T02:03:14.129Z,10.20
2023-05-13T02:04:36.215Z,10.20
2023-05-13T02:05:58.249Z,10.20
2023-05-13T02:07:21.138Z,10.20
2023-05-13T02:08:43.261Z,10.20
2023-05-13T02:10:06.229Z,10.10
2023-05-13T02:11:28.253Z,10.10
2023-05-13T02:12:50.263Z,10.10
2023-05-13T02:14:12.409Z,10.10
2023-05-13T02:15:34.564Z,10.10
2023-05-13T02:16:56.624Z,10.10
2023-05-13T02:18:18.894Z,10.10
2023-05-13T02:19:41.309Z,10.10
2023-05-13T02:21:03.417Z,10.10
2023-05-13T02:22:25.568Z,10.10
2023-05-13T02:23:47.692Z,10.10
2023-05-13T02:25:10.045Z,10.00
2023-05-13T02:26:32.148Z,10.00
2023-05-13T02:27:54.239Z,10.00
2023-05-13T02:29:16.268Z,10.00
2023-05-13T02:30:38.335Z,10.00
2023-05-13T02:32:00.723Z,10.00
2023-05-13T02:33:23.292Z,10.00
2023-05-13T02:34:45.444Z,10.00
2023-05-13T02:36:07.670Z,10.00
2023-05-13T02:37:29.992Z,10.00
2023-05-13T02:38:52.022Z,10.00
2023-05-13T02:40:14.724Z,9.90
2023-05-13T02:41:37.238Z,9.90
2023-05-13T02:42:59.301Z,9.90
2023-05-13T02:44:21.353Z,9.90
2023-05-13T02:45:44.004Z,9.90
2023-05-13T02:47:06.200Z,9.90
2023-05-13T02:48:28.218Z,9.80
2023-05-13T02:49:50.376Z,9.80
2023-05-13T02:51:12.481Z,9.80
2023-05-13T02:52:39.220Z,9.80
2023-05-13T02:54:01.310Z,9.80
2023-05-13T02:55:23.575Z,9.80
2023-05-13T02:56:45.674Z,9.80
2023-05-13T02:58:09.477Z,9.80
2023-05-13T02:59:31.526Z,9.80
2023-05-13T03:00:53.657Z,9.80
2023-05-13T03:02:15.812Z,9.80
2023-05-13T03:03:38.173Z,9.80
2023-05-13T03:05:00.337Z,9.80
2023-05-13T03:06:22.390Z,9.80
2023-05-13T03:07:44.769Z,9.80
2023-05-13T03:09:06.878Z,9.80
2023-05-13T03:10:29.044Z,9.80
2023-05-13T03:11:51.141Z,9.80
2023-05-13T03:13:13.422Z,9.80
2023-05-13T03:14:37.065Z,9.80
2023-05-13T03:15:59.154Z,9.80
2023-05-13T03:17:21.312Z,9.90
2023-05-13T03:18:43.405Z,9.90
2023-05-13T03:20:06.112Z,9.90
2023-05-13T03:21:28.136Z,9.90
2023-05-13T03:22:50.236Z,9.90
2023-05-13T03:24:12.234Z,9.90
2023-05-13T03:25:34.359Z,10.00
2023-05-13T03:26:57.377Z,10.00
2023-05-13T03:28:19.381Z,10.00
2023-05-13T03:29:41.478Z,10.10
2023-05-13T03:31:03.649Z,10.20
2023-05-13T03:32:30.458Z,10.20
2023-05-13T03:33:52.624Z,10.20
2023-05-13T03:35:14.816Z,10.30
2023-05-13T03:36:37.116Z,10.30
2023-05-13T03:37:59.171Z,10.40
2023-05-13T03:39:21.207Z,10.40
2023-05-13T03:40:43.323Z,10.50
2023-05-13T03:42:05.661Z,10.50
2023-05-13T03:43:27.691Z,10.50
2023-05-13T03:44:51.281Z,10.60
2023-05-13T03:46:13.404Z,10.70
2023-05-13T03:47:35.537Z,10.80
2023-05-13T03:48:57.834Z,11.00
2023-05-13T03:50:20.757Z,11.50
2023-05-13T03:51:43.121Z,12.10
2023-05-13T03:53:05.389Z,12.90
2023-05-13T03:54:27.698Z,13.60
2023-05-13T03:55:50.473Z,14.30
2023-05-13T03:57:12.518Z,15.00
2023-05-13T03:58:34.659Z,15.60
2023-05-13T03:59:56.781Z,16.20
2023-05-13T04:01:18.898Z,16.70
2023-05-13T04:02:41.412Z,17.10
2023-05-13T04:04:03.833Z,17.50
2023-05-13T04:05:25.948Z,18.00
2023-05-13T04:06:47.981Z,18.40
2023-05-13T04:08:11.284Z,18.70
2023-05-13T04:09:33.332Z,19.20
2023-05-13T04:10:57.066Z,19.50
2023-05-13T04:12:19.249Z,19.90
2023-05-13T04:13:41.311Z,20.10
2023-05-13T04:15:03.626Z,20.40
2023-05-13T04:16:25.936Z,20.70
2023-05-13T04:17:48.523Z,21.00
2023-05-13T04:19:10.712Z,21.20
2023-05-13T04:20:32.905Z,21.60
2023-05-13T04:21:54.961Z,21.90
2023-05-13T04:23:16.991Z,22.10
2023-05-13T04:24:39.027Z,22.40
2023-05-13T04:26:01.182Z,22.60
2023-05-13T04:27:24.032Z,22.90
2023-05-13T04:28:46.067Z,23.00
2023-05-13T04:30:08.585Z,23.00
2023-05-13T04:31:30.730Z,23.00
2023-05-13T04:32:53.017Z,23.10
2023-05-13T04:34:15.195Z,23.20
2023-05-13T04:35:37.338Z,23.30
2023-05-13T04:36:59.381Z,23.50
2023-05-13T04:38:21.416Z,23.50
2023-05-13T04:39:46.023Z,23.70
2023-05-13T04:41:08.170Z,23.80
2023-05-13T04:42:30.271Z,24.00
2023-05-13T04:43:52.319Z,24.20
2023-05-13T04:45:14.638Z,24.40
2023-05-13T04:46:40.308Z,24.60
2023-05-13T04:48:02.452Z,24.90
2023-05-13T04:49:24.493Z,25.20
2023-05-13T04:50:47.415Z,25.10
2023-05-13T04:52:12.816Z,25.10
2023-05-13T04:53:35.283Z,25.30
2023-05-13T04:54:57.296Z,25.40
2023-05-13T04:56:19.364Z,25.50
2023-05-13T04:57:41.373Z,25.60
2023-05-13T04:59:03.407Z,25.70
2023-05-13T05:00:25.515Z,25.70
2023-05-13T05:01:47.644Z,25.80
2023-05-13T05:03:09.739Z,25.80
2023-05-13T05:04:31.899Z,25.70
2023-05-13T05:05:53.953Z,25.60
2023-05-13T05:07:16.070Z,25.50
2023-05-13T05:08:38.137Z,25.70
2023-05-13T05:10:00.223Z,25.80
2023-05-13T05:11:22.264Z,25.80
2023-05-13T05:12:44.378Z,26.10
2023-05-13T05:14:06.483Z,26.40
2023-05-13T05:15:29.758Z,26.40
2023-05-13T05:16:51.917Z,26.40
2023-05-13T05:18:15.316Z,26.10
2023-05-13T05:19:37.409Z,26.20
2023-05-13T05:21:01.763Z,26.30
2023-05-13T05:22:24.930Z,26.40
2023-05-13T05:23:47.047Z,26.50
2023-05-13T05:25:10.151Z,26.50
2023-05-13T05:26:32.278Z,26.40
2023-05-13T05:27:54.520Z,26.50
2023-05-13T05:29:16.734Z,26.30
2023-05-13T05:30:41.715Z,26.30
2023-05-13T05:32:04.054Z,26.30
2023-05-13T05:33:27.073Z,26.50
2023-05-13T05:34:49.102Z,26.60
2023-05-13T05:36:11.155Z,26.60
2023-05-13T05:37:33.221Z,26.70
2023-05-13T05:38:55.501Z,26.70
2023-05-13T05:40:17.690Z,26.70
2023-05-13T05:41:39.779Z,26.60
2023-05-13T05:43:02.298Z,26.50
2023-05-13T05:44:24.373Z,26.70
2023-05-13T05:45:46.489Z,26.60
2023-05-13T05:47:08.577Z,26.40
2023-05-13T05:48:32.567Z,26.30
2023-05-13T05:49:55.905Z,26.30
2023-05-13T05:51:18.018Z,26.20
2023-05-13T05:52:40.070Z,26.10
2023-05-13T05:54:02.185Z,26.10
2023-05-13T05:55:24.200Z,26.10
2023-05-13T05:56:46.320Z,26.20
2023-05-13T05:58:10.249Z,26.00
2023-05-13T05:59:32.256Z,25.90
2023-05-13T06:00:54.744Z,26.00
2023-05-13T06:02:16.842Z,25.80
2023-05-13T06:03:38.997Z,25.70
2023-05-13T06:05:01.280Z,25.50
2023-05-13T06:06:23.314Z,25.20
2023-05-13T06:07:45.364Z,25.10
2023-05-13T06:09:07.412Z,25.10
2023-05-13T06:10:29.539Z,24.90
2023-05-13T06:11:51.625Z,24.60
2023-05-13T06:13:13.686Z,24.40
2023-05-13T06:14:35.809Z,24.30
2023-05-13T06:15:57.938Z,24.20
2023-05-13T06:17:20.094Z,24.00
2023-05-13T06:18:43.090Z,23.40
2023-05-13T06:21:08.853Z,22.30
2023-05-13T06:22:30.906Z,22.00
2023-05-13T06:23:52.932Z,21.60
2023-05-13T06:25:15.054Z,21.10
2023-05-13T06:26:37.283Z,20.70
2023-05-13T06:28:01.421Z,20.30
2023-05-13T06:29:24.927Z,20.00
2023-05-13T06:30:46.975Z,19.80
2023-05-13T06:32:09.024Z,19.60
2023-05-13T06:33:31.248Z,19.50
2023-05-13T06:34:55.232Z,19.30
2023-05-13T06:36:18.082Z,19.30
2023-05-13T06:37:40.134Z,19.10
2023-05-13T06:39:02.182Z,19.10
2023-05-13T06:40:24.715Z,19.00
2023-05-13T06:41:46.888Z,19.00
2023-05-13T06:43:08.961Z,18.90
2023-05-13T06:44:31.319Z,18.90
2023-05-13T06:45:53.350Z,18.80
2023-05-13T06:47:16.376Z,18.80
2023-05-13T06:48:38.611Z,18.70
2023-05-13T06:50:00.844Z,18.70
2023-05-13T06:51:23.062Z,18.70
2023-05-13T06:52:45.320Z,18.70
2023-05-13T06:54:07.355Z,18.80
2023-05-13T06:55:29.402Z,18.80
2023-05-13T06:56:52.215Z,18.80
2023-05-13T06:58:14.352Z,18.70
2023-05-13T06:59:36.548Z,18.70
2023-05-13T07:00:58.637Z,18.80
2023-05-13T07:02:20.858Z,18.80
2023-05-13T07:03:43.468Z,18.80
2023-05-13T07:05:09.770Z,18.80
2023-05-13T07:06:33.124Z,18.90
2023-05-13T07:07:55.185Z,19.00
2023-05-13T07:09:17.312Z,19.00
2023-05-13T07:10:39.348Z,19.00
2023-05-13T07:12:01.818Z,19.10
2023-05-13T07:13:24.439Z,19.10
2023-05-13T07:14:46.521Z,19.20
2023-05-13T07:16:08.618Z,19.20
2023-05-13T07:17:31.623Z,19.20
2023-05-13T07:18:56.680Z,19.20
2023-05-13T07:20:22.232Z,19.20
2023-05-13T07:21:44.722Z,19.20
2023-05-13T07:23:06.936Z,19.20
2023-05-13T07:24:29.008Z,19.30
2023-05-13T07:25:52.077Z,19.40
2023-05-13T07:27:14.166Z,19.40
2023-05-13T07:28:36.561Z,19.50
2023-05-13T07:29:58.593Z,19.40
2023-05-13T07:31:20.848Z,19.40
2023-05-13T07:32:43.042Z,19.40
2023-05-13T07:34:06.062Z,19.40
2023-05-13T07:35:28.188Z,19.50
2023-05-13T07:36:50.277Z,19.60
2023-05-13T07:38:12.345Z,19.60
2023-05-13T07:39:35.326Z,19.70
2023-05-13T07:40:57.411Z,19.80
2023-05-13T07:42:19.743Z,19.90
2023-05-13T07:43:41.951Z,19.90
2023-05-13T07:45:04.741Z,19.90
2023-05-13T07:46:26.834Z,19.90
2023-05-13T07:47:48.950Z,20.00
2023-05-13T07:49:11.016Z,20.10
2023-05-13T07:50:33.273Z,20.10
2023-05-13T07:51:55.933Z,20.20
2023-05-13T07:53:19.737Z,20.20
2023-05-13T07:54:42.137Z,20.20
2023-05-13T07:56:04.562Z,20.30
2023-05-13T07:57:26.660Z,20.40
2023-05-13T07:58:50.373Z,20.50
2023-05-13T08:00:12.843Z,20.50
2023-05-13T08:01:35.534Z,20.60
2023-05-13T08:02:57.991Z,20.60
2023-05-13T08:04:20.203Z,20.60
2023-05-13T08:05:42.598Z,20.70
2023-05-13T08:07:04.840Z,20.60
2023-05-13T08:08:27.031Z,20.60
2023-05-13T08:09:49.115Z,20.50
2023-05-13T08:11:11.402Z,20.50
2023-05-13T08:12:33.496Z,20.50
2023-05-13T08:13:55.703Z,20.40
2023-05-13T08:15:19.179Z,20.50
2023-05-13T08:16:41.413Z,20.50
2023-05-13T08:18:03.685Z,20.60
2023-05-13T08:19:25.783Z,20.60
2023-05-13T08:20:47.858Z,20.60
2023-05-13T08:22:09.991Z,20.60
2023-05-13T08:23:44.253Z,20.70
2023-05-13T08:25:07.915Z,20.80
2023-05-13T08:26:30.025Z,20.80
2023-05-13T08:27:52.091Z,20.90
2023-05-13T08:29:15.620Z,20.90
2023-05-13T08:30:40.673Z,21.00
2023-05-13T08:32:03.000Z,21.00
2023-05-13T08:33:25.182Z,21.10
2023-05-13T08:34:47.279Z,21.20
2023-05-13T08:36:09.712Z,21.30
2023-05-13T08:37:31.903Z,21.30
2023-05-13T08:38:53.904Z,21.30
2023-05-13T08:40:16.265Z,21.40
2023-05-13T08:41:38.971Z,21.40
2023-05-13T08:43:02.617Z,21.50
2023-05-13T08:44:28.973Z,21.50
2023-05-13T08:45:53.633Z,21.60
2023-05-13T08:47:37.258Z,21.60
2023-05-13T08:48:59.743Z,21.60
2023-05-13T08:50:22.540Z,21.60
2023-05-13T08:51:44.691Z,21.70
2023-05-13T08:53:07.393Z,21.80
2023-05-13T08:54:30.250Z,21.90
2023-05-13T08:55:53.242Z,22.00
2023-05-13T08:57:15.407Z,22.10
2023-05-13T08:58:37.540Z,22.10
2023-05-13T08:59:59.584Z,22.10
2023-05-13T09:01:24.002Z,22.10
2023-05-13T09:02:46.335Z,22.10
2023-05-13T09:04:10.465Z,22.20
2023-05-13T09:05:33.749Z,22.20
2023-05-13T09:06:57.800Z,22.30
2023-05-13T09:08:19.958Z,22.40
2023-05-13T09:09:42.173Z,22.40
2023-05-13T09:11:04.334Z,22.30
2023-05-13T09:12:58.884Z,22.30
2023-05-13T09:14:20.980Z,22.40
2023-05-13T09:15:44.289Z,22.40
2023-05-13T09:17:07.300Z,22.40
2023-05-13T09:18:33.111Z,22.50
2023-05-13T09:19:55.466Z,22.50
2023-05-13T09:21:25.140Z,22.40
2023-05-13T09:22:48.338Z,22.30
2023-05-13T09:24:18.817Z,22.30
2023-05-13T09:25:41.034Z,22.30
2023-05-13T09:27:03.103Z,22.40
2023-05-13T09:28:25.331Z,22.50
2023-05-13T09:29:58.825Z,22.50
2023-05-13T09:31:33.172Z,22.70
2023-05-13T09:33:14.510Z,22.80
2023-05-13T09:34:36.608Z,22.90
2023-05-13T09:35:58.778Z,22.80
2023-05-13T09:37:24.730Z,22.80
2023-05-13T09:38:46.960Z,22.80
2023-05-13T09:40:13.018Z,22.80
2023-05-13T09:41:35.162Z,22.90
2023-05-13T09:43:00.331Z,22.90
2023-05-13T09:44:22.885Z,23.00
2023-05-13T09:45:45.088Z,23.10
2023-05-13T09:47:07.264Z,23.00
2023-05-13T09:48:31.898Z,23.00
2023-05-13T09:49:57.668Z,23.00
2023-05-13T09:51:26.028Z,23.10
2023-05-13T09:52:48.090Z,23.10
2023-05-13T09:54:10.183Z,23.10
2023-05-13T09:55:33.832Z,23.20
2023-05-13T09:57:01.086Z,23.30
2023-05-13T09:58:24.613Z,23.30
2023-05-13T09:59:46.807Z,23.30
2023-05-13T10:01:08.970Z,23.40
2023-05-13T10:02:31.272Z,23.50
2023-05-13T10:03:55.777Z,23.50
2023-05-13T10:05:18.339Z,23.50
2023-05-13T10:06:40.475Z,23.60
2023-05-13T10:08:03.206Z,23.60
2023-05-13T10:09:29.054Z,23.60
2023-05-13T10:10:55.010Z,23.60
2023-05-13T10:12:19.893Z,23.60
2023-05-13T10:13:43.467Z,23.70
2023-05-13T10:15:06.268Z,23.60
2023-05-13T10:16:29.751Z,23.60
2023-05-13T10:17:52.825Z,23.60
2023-05-13T10:19:15.488Z,23.70
2023-05-13T10:20:38.259Z,23.60
2023-05-13T10:22:01.381Z,23.60
2023-05-13T10:23:24.492Z,23.60
2023-05-13T10:24:46.947Z,23.50
2023-05-13T10:26:09.341Z,23.50
2023-05-13T10:27:33.881Z,23.60
2023-05-13T10:28:57.455Z,23.70
2023-05-13T10:30:26.143Z,23.80
2023-05-13T10:31:49.063Z,23.90
2023-05-13T10:33:11.629Z,23.90
2023-05-13T10:34:35.687Z,24.10
2023-05-13T10:36:06.696Z,24.10
2023-05-13T10:37:43.417Z,24.10
2023-05-13T10:39:29.331Z,24.10
2023-05-13T10:41:09.366Z,24.00
2023-05-13T10:42:42.980Z,23.90
2023-05-13T10:44:06.945Z,24.00
2023-05-13T10:45:33.394Z,24.10
2023-05-13T10:46:58.749Z,24.10
2023-05-13T10:48:20.929Z,24.10
2023-05-13T10:49:52.563Z,24.10
2023-05-13T10:51:16.390Z,24.10
2023-05-13T10:52:47.809Z,24.10
2023-05-13T10:54:21.346Z,24.20
2023-05-13T10:55:46.525Z,24.20
2023-05-13T10:57:09.442Z,24.20
2023-05-13T10:58:34.445Z,24.00
2023-05-13T11:00:16.119Z,23.90
2023-05-13T11:01:47.203Z,23.90
2023-05-13T11:03:28.821Z,23.90
2023-05-13T11:05:01.171Z,23.90
2023-05-13T11:06:28.614Z,23.80
2023-05-13T11:07:57.617Z,23.80
2023-05-13T11:09:22.837Z,24.00
2023-05-13T11:10:55.278Z,24.00
2023-05-13T11:12:17.437Z,24.10
2023-05-13T11:13:39.525Z,24.00
2023-05-13T11:15:01.590Z,23.90
2023-05-13T11:16:24.251Z,23.80
2023-05-13T11:17:46.615Z,23.90
2023-05-13T11:19:21.567Z,24.00
2023-05-13T11:21:07.701Z,24.30
2023-05-13T11:22:30.677Z,24.40
2023-05-13T11:24:01.696Z,24.40
2023-05-13T11:25:27.471Z,24.30
2023-05-13T11:26:50.581Z,24.00
2023-05-13T11:28:18.570Z,23.80
2023-05-13T11:29:55.509Z,23.50
2023-05-13T11:31:17.767Z,23.40
2023-05-13T11:32:55.930Z,23.50
2023-05-13T11:34:19.307Z,23.50
2023-05-13T11:35:43.775Z,23.40
2023-05-13T11:37:10.227Z,23.30
2023-05-13T11:38:34.477Z,23.10
2023-05-13T11:39:57.084Z,23.00
2023-05-13T11:41:19.269Z,22.90
2023-05-13T11:42:42.773Z,22.80
2023-05-13T11:44:05.939Z,22.60
2023-05-13T11:45:30.619Z,22.60
2023-05-13T11:46:54.775Z,22.50
2023-05-13T11:48:24.027Z,22.60
2023-05-13T11:49:47.091Z,22.70
2023-05-13T11:51:09.198Z,22.70
2023-05-13T11:52:31.496Z,22.60
2023-05-13T11:54:00.638Z,22.40
2023-05-13T11:55:34.555Z,22.30
2023-05-13T11:56:56.636Z,22.20
2023-05-13T11:58:21.501Z,22.10
2023-05-13T12:00:10.163Z,22.00
2023-05-13T12:01:32.236Z,22.00
2023-05-13T12:02:55.122Z,22.00
2023-05-13T12:04:17.262Z,22.10
2023-05-13T12:05:40.059Z,22.20
2023-05-13T12:07:02.549Z,22.20
2023-05-13T12:08:24.574Z,22.20
2023-05-13T12:09:46.680Z,22.10
2023-05-13T12:11:12.978Z,22.10
2023-05-13T12:12:38.955Z,22.00
2023-05-13T12:14:01.781Z,22.00
2023-05-13T12:15:24.235Z,21.90
2023-05-13T12:16:47.311Z,21.80
2023-05-13T12:18:09.526Z,21.60
2023-05-13T12:19:31.733Z,21.50
2023-05-13T12:20:54.041Z,21.40
2023-05-13T12:22:16.552Z,21.40
2023-05-13T12:23:41.438Z,21.30
2023-05-13T12:25:38.877Z,21.30
2023-05-13T12:27:09.457Z,21.30
2023-05-13T12:28:33.743Z,21.10
2023-05-13T12:29:56.323Z,21.10
2023-05-13T12:31:18.496Z,21.20
2023-05-13T12:32:47.283Z,21.20
2023-05-13T12:34:10.108Z,21.30
2023-05-13T12:35:33.117Z,21.40
2023-05-13T12:36:55.273Z,21.50
2023-05-13T12:38:20.023Z,21.50
2023-05-13T12:39:42.990Z,21.30
2023-05-13T12:41:15.301Z,21.30
2023-05-13T12:42:37.524Z,21.20
2023-05-13T12:44:06.568Z,21.20
2023-05-13T12:45:30.557Z,21.30
2023-05-13T12:46:54.102Z,21.20
2023-05-13T12:48:16.303Z,21.30
2023-05-13T12:49:54.983Z,21.40
2023-05-13T12:51:17.156Z,21.40
2023-05-13T12:52:39.220Z,21.40
2023-05-13T12:54:01.707Z,21.50
2023-05-13T12:55:23.974Z,21.50
2023-05-13T12:56:46.259Z,21.50
2023-05-13T12:58:11.179Z,21.60
2023-05-13T12:59:34.674Z,21.50
2023-05-13T13:00:56.795Z,21.50
2023-05-13T13:02:18.908Z,21.50
2023-05-13T13:03:41.105Z,21.50
2023-05-13T13:05:03.872Z,21.40
2023-05-13T13:06:26.237Z,21.30
2023-05-13T13:07:49.038Z,21.30
2023-05-13T13:09:11.254Z,21.30
2023-05-13T13:10:33.450Z,21.30
2023-05-13T13:11:55.556Z,21.20
2023-05-13T13:13:17.786Z,21.10
2023-05-13T13:14:40.085Z,21.10
2023-05-13T13:16:02.678Z,21.10
2023-05-13T13:17:24.965Z,21.10
2023-05-13T13:18:47.568Z,21.10
2023-05-13T13:20:09.912Z,21.10
2023-05-13T13:21:32.145Z,21.10
2023-05-13T13:22:54.846Z,21.00
2023-05-13T13:24:16.992Z,21.00
2023-05-13T13:25:40.220Z,21.00
2023-05-13T13:27:02.340Z,20.90
2023-05-13T13:28:24.654Z,20.80
2023-05-13T13:29:46.790Z,20.80
2023-05-13T13:31:09.243Z,20.90
2023-05-13T13:32:31.707Z,20.80
2023-05-13T13:33:54.029Z,20.80
2023-05-13T13:35:16.220Z,20.70
2023-05-13T13:36:38.436Z,20.70
2023-05-13T13:38:00.540Z,20.70
2023-05-13T13:39:22.617Z,20.70
2023-05-13T13:40:44.861Z,20.70
2023-05-13T13:42:07.036Z,20.70
2023-05-13T13:43:29.253Z,20.60
2023-05-13T13:44:51.509Z,20.60
2023-05-13T13:46:13.616Z,20.60
2023-05-13T13:47:36.102Z,20.60
2023-05-13T13:48:58.231Z,20.60
2023-05-13T13:50:20.716Z,20.60
2023-05-13T13:51:42.985Z,20.50
2023-05-13T13:53:05.026Z,20.40
2023-05-13T13:54:27.135Z,20.50
2023-05-13T13:55:49.313Z,20.50
2023-05-13T13:57:11.474Z,20.40
2023-05-13T13:58:33.600Z,20.40
2023-05-13T13:59:55.695Z,20.40
2023-05-13T14:01:19.584Z,20.40
2023-05-13T14:02:42.796Z,20.40
2023-05-13T14:04:23.463Z,20.50
2023-05-13T14:05:45.714Z,20.60
2023-05-13T14:07:07.889Z,20.60
2023-05-13T14:08:29.987Z,20.60
2023-05-13T14:09:52.535Z,20.50
2023-05-13T14:11:14.803Z,20.50
2023-05-13T14:12:37.761Z,20.50
2023-05-13T14:13:59.989Z,20.40
2023-05-13T14:15:22.346Z,20.30
2023-05-13T14:16:44.467Z,20.30
2023-05-13T14:18:09.752Z,20.20
2023-05-13T14:19:31.908Z,20.30
2023-05-13T14:20:54.244Z,20.40
2023-05-13T14:22:16.549Z,20.50
2023-05-13T14:23:41.648Z,20.50
2023-05-13T14:25:04.272Z,20.50
2023-05-13T14:26:26.444Z,20.50
2023-05-13T14:27:48.513Z,20.50
2023-05-13T14:29:10.785Z,20.50
2023-05-13T14:30:32.869Z,20.50
2023-05-13T14:31:56.733Z,20.50
2023-05-13T14:33:18.879Z,20.50
2023-05-13T14:34:41.069Z,20.40
2023-05-13T14:36:03.289Z,20.40
2023-05-13T14:37:25.451Z,20.40
2023-05-13T14:38:47.622Z,20.30
2023-05-13T14:40:10.067Z,20.20
2023-05-13T14:41:32.230Z,20.10
2023-05-13T14:42:54.357Z,20.10
2023-05-13T14:44:16.462Z,20.10
2023-05-13T14:45:38.556Z,20.10
2023-05-13T14:47:01.170Z,20.20
2023-05-13T14:48:23.747Z,20.20
2023-05-13T14:49:45.895Z,20.10
2023-05-13T14:51:08.058Z,20.10
2023-05-13T14:52:30.312Z,20.10
2023-05-13T14:53:52.495Z,20.00
2023-05-13T14:55:14.713Z,20.00
2023-05-13T14:56:37.854Z,20.10
2023-05-13T14:58:01.190Z,20.00
2023-05-13T14:59:23.409Z,20.00
2023-05-13T15:00:45.736Z,20.00
2023-05-13T15:02:08.527Z,20.00
2023-05-13T15:03:30.891Z,20.00
2023-05-13T15:04:53.012Z,20.00
2023-05-13T15:06:15.346Z,20.00
2023-05-13T15:07:37.551Z,20.00
2023-05-13T15:08:59.745Z,19.90
2023-05-13T15:10:22.032Z,19.90
2023-05-13T15:11:44.301Z,19.80
2023-05-13T15:13:06.396Z,19.80
2023-05-13T15:14:28.461Z,19.80
2023-05-13T15:15:51.296Z,19.70
2023-05-13T15:17:15.277Z,19.60
2023-05-13T15:18:39.442Z,19.70
2023-05-13T15:20:01.757Z,19.60
2023-05-13T15:21:23.851Z,19.60
2023-05-13T15:22:46.089Z,19.50
2023-05-13T15:24:08.165Z,19.50
2023-05-13T15:25:30.448Z,19.50
2023-05-13T15:26:52.552Z,19.50
2023-05-13T15:28:15.169Z,19.50
2023-05-13T15:29:37.224Z,19.40
2023-05-13T15:30:59.272Z,19.30
2023-05-13T15:32:21.306Z,19.20
2023-05-13T15:33:45.112Z,19.10
2023-05-13T15:35:07.730Z,19.00
2023-05-13T15:36:29.925Z,18.80
2023-05-13T15:37:52.059Z,18.70
2023-05-13T15:39:14.072Z,18.70
2023-05-13T15:40:36.281Z,18.60
2023-05-13T15:41:58.380Z,18.50
2023-05-13T15:43:20.786Z,18.50
2023-05-13T15:44:42.859Z,18.40
2023-05-13T15:46:05.098Z,18.40
2023-05-13T15:47:27.236Z,18.40
2023-05-13T15:48:49.516Z,18.50
2023-05-13T15:50:11.678Z,18.60
2023-05-13T15:51:33.944Z,18.70
2023-05-13T15:52:56.253Z,18.80
2023-05-13T15:54:18.338Z,18.80
2023-05-13T15:55:40.615Z,18.80
2023-05-13T15:57:02.739Z,18.80
2023-05-13T15:58:24.844Z,18.80
2023-05-13T15:59:47.087Z,18.70
2023-05-13T16:01:09.106Z,18.60
2023-05-13T16:02:37.443Z,18.60
2023-05-13T16:03:59.603Z,18.50
2023-05-13T16:05:21.758Z,18.40
2023-05-13T16:06:43.848Z,18.40
2023-05-13T16:08:05.973Z,18.40
2023-05-13T16:09:28.072Z,18.40
2023-05-13T16:10:50.227Z,18.30
2023-05-13T16:12:12.256Z,18.30
2023-05-13T16:13:34.277Z,18.20
2023-05-13T16:14:56.883Z,18.10
2023-05-13T16:16:20.134Z,18.00
2023-05-13T16:17:42.284Z,17.90
2023-05-13T16:19:04.596Z,17.80
2023-05-13T16:20:27.036Z,17.80
2023-05-13T16:21:49.103Z,17.70
2023-05-13T16:23:11.154Z,17.70
2023-05-13T16:24:33.250Z,17.60
2023-05-13T16:25:55.311Z,17.50
2023-05-13T16:27:17.362Z,17.50
2023-05-13T16:28:39.472Z,17.40
2023-05-13T16:30:03.304Z,17.40
2023-05-13T16:31:25.447Z,17.30
2023-05-13T16:32:53.000Z,17.30
2023-05-13T16:34:15.345Z,17.40
2023-05-13T16:35:37.587Z,17.30
2023-05-13T16:36:59.628Z,17.30
2023-05-13T16:38:21.719Z,17.30
2023-05-13T16:39:44.367Z,17.30
2023-05-13T16:41:06.398Z,17.20
2023-05-13T16:42:28.678Z,17.10
2023-05-13T16:43:50.920Z,17.00
2023-05-13T16:45:13.169Z,17.00
2023-05-13T16:46:35.443Z,17.10
2023-05-13T16:47:57.977Z,17.10
2023-05-13T16:49:20.543Z,17.10
2023-05-13T16:50:42.816Z,17.00
2023-05-13T16:52:05.919Z,17.00
2023-05-13T16:53:28.137Z,16.90
2023-05-13T16:54:50.368Z,16.90
2023-05-13T16:56:12.429Z,16.90
2023-05-13T16:57:34.539Z,16.80
2023-05-13T16:58:56.649Z,16.90
2023-05-13T17:00:18.994Z,16.90
2023-05-13T17:01:41.291Z,16.90
2023-05-13T17:03:03.887Z,16.90
2023-05-13T17:04:26.694Z,17.00
2023-05-13T17:05:48.981Z,17.10
2023-05-13T17:07:11.065Z,17.10
2023-05-13T17:08:33.146Z,17.10
2023-05-13T17:09:55.286Z,17.20
2023-05-13T17:11:17.919Z,17.20
2023-05-13T17:12:40.012Z,17.20
2023-05-13T17:14:06.107Z,17.30
2023-05-13T17:15:28.238Z,17.20
2023-05-13T17:16:50.457Z,17.20
2023-05-13T17:18:12.616Z,17.30
2023-05-13T17:19:34.932Z,17.30
2023-05-13T17:20:57.222Z,17.30
2023-05-13T17:22:19.345Z,17.40
2023-05-13T17:23:41.418Z,17.40
2023-05-13T17:25:04.220Z,17.50
2023-05-13T17:26:26.442Z,17.60
2023-05-13T17:27:48.511Z,17.60
2023-05-13T17:29:10.633Z,17.60
2023-05-13T17:30:32.863Z,17.70
2023-05-13T17:31:54.981Z,17.60
2023-05-13T17:33:17.028Z,17.60
2023-05-13T17:34:39.315Z,17.60
2023-05-13T17:36:01.549Z,17.50
2023-05-13T17:37:23.669Z,17.40
2023-05-13T17:38:46.004Z,17.50
2023-05-13T17:40:08.857Z,17.50
2023-05-13T17:41:31.050Z,17.50
2023-05-13T17:42:53.240Z,17.50
2023-05-13T17:44:15.515Z,17.50
2023-05-13T17:45:37.694Z,17.50
2023-05-13T17:46:59.864Z,17.50
2023-05-13T17:48:22.021Z,17.50
2023-05-13T17:49:44.241Z,17.60
2023-05-13T17:51:06.321Z,17.60
2023-05-13T17:52:28.383Z,17.60
2023-05-13T17:53:50.583Z,17.60
2023-05-13T17:55:12.769Z,17.70
2023-05-13T17:56:34.845Z,17.70
2023-05-13T17:57:57.011Z,17.70